createdAt,value
2023-04-03T00:01:13.428Z,7.53
2023-04-03T00:03:42.743Z,6.57
2023-04-03T00:06:12.252Z,9.90
2023-04-03T00:08:40.313Z,4.20
2023-04-03T00:11:07.381Z,8.83
2023-04-03T00:13:35.026Z,5.63
2023-04-03T00:16:02.986Z,7.17
2023-04-03T00:18:30.471Z,4.10
2023-04-03T00:20:57.370Z,5.93
2023-04-03T00:23:24.808Z,7.33
2023-04-03T00:25:52.293Z,8.90
2023-04-03T00:28:19.458Z,4.40
2023-04-03T00:30:46.686Z,10.13
2023-04-03T00:33:14.161Z,7.83
2023-04-03T00:35:41.578Z,8.83
2023-04-03T00:38:09.658Z,5.77
2023-04-03T00:40:39.580Z,7.47
2023-04-03T00:43:23.109Z,9.33
2023-04-03T00:45:53.311Z,8.53
2023-04-03T00:48:31.669Z,5.03
2023-04-03T00:51:00.021Z,7.83
2023-04-03T00:53:32.194Z,8.00
2023-04-03T00:56:01.120Z,10.63
2023-04-03T00:59:00.132Z,6.10
2023-04-03T01:01:30.175Z,11.43
2023-04-03T01:03:57.802Z,5.97
2023-04-03T01:06:35.109Z,4.00
2023-04-03T01:09:02.583Z,4.83
2023-04-03T01:11:29.529Z,4.13
2023-04-03T01:13:56.520Z,7.20
2023-04-03T01:16:23.909Z,3.60
2023-04-03T01:18:51.437Z,6.77
2023-04-03T01:21:38.776Z,8.97
2023-04-03T01:24:36.306Z,5.77
2023-04-03T01:27:06.824Z,7.10
2023-04-03T01:29:34.244Z,5.70
2023-04-03T01:32:02.811Z,5.70
2023-04-03T01:34:30.426Z,5.57
2023-04-03T01:36:57.672Z,5.50
2023-04-03T01:39:24.903Z,5.83
2023-04-03T01:41:51.892Z,4.13
2023-04-03T01:44:18.864Z,6.10
2023-04-03T01:46:45.834Z,3.03
2023-04-03T01:49:12.945Z,3.33
2023-04-03T01:51:39.859Z,4.77
2023-04-03T01:54:06.726Z,6.30
2023-04-03T01:56:33.670Z,2.57
2023-04-03T01:59:00.607Z,5.97
2023-04-03T02:01:27.817Z,7.20
2023-04-03T02:03:54.867Z,3.53
2023-04-03T02:06:21.773Z,4.30
2023-04-03T02:08:48.673Z,3.47
2023-04-03T02:11:15.656Z,3.73
2023-04-03T02:13:42.529Z,3.33
2023-04-03T02:16:11.278Z,4.43
2023-04-03T02:18:39.190Z,3.90
2023-04-03T02:21:06.756Z,2.90
2023-04-03T02:23:34.671Z,3.07
2023-04-03T02:26:10.391Z,3.87
2023-04-03T02:28:37.633Z,6.03
2023-04-03T02:31:05.884Z,4.63
2023-04-03T02:33:34.911Z,3.60
2023-04-03T02:36:01.839Z,2.70
2023-04-03T02:38:28.787Z,3.03
2023-04-03T02:41:02.150Z,4.43
2023-04-03T02:43:29.058Z,4.67
2023-04-03T02:45:56.142Z,5.57
2023-04-03T02:48:23.683Z,5.67
2023-04-03T02:50:50.784Z,3.40
2023-04-03T02:53:18.146Z,3.40
2023-04-03T02:55:46.118Z,3.07
2023-04-03T02:58:13.518Z,3.87
2023-04-03T03:00:40.922Z,4.30
2023-04-03T03:03:08.258Z,3.17
2023-04-03T03:05:35.254Z,5.53
2023-04-03T03:08:02.133Z,2.80
2023-04-03T03:10:29.122Z,2.97
2023-04-03T03:12:56.191Z,3.33
2023-04-03T03:15:23.425Z,2.63
2023-04-03T03:17:50.564Z,3.90
2023-04-03T03:20:18.638Z,2.90
2023-04-03T03:22:45.734Z,2.70
2023-04-03T03:25:12.685Z,2.43
2023-04-03T03:27:39.559Z,2.73
2023-04-03T03:30:07.192Z,3.27
2023-04-03T03:32:34.180Z,4.03
2023-04-03T03:35:01.203Z,4.17
2023-04-03T03:37:28.747Z,2.40
2023-04-03T03:39:55.857Z,4.70
2023-04-03T03:42:23.472Z,3.30
2023-04-03T03:44:50.507Z,4.27
2023-04-03T03:47:17.453Z,4.27
2023-04-03T03:49:44.532Z,6.83
2023-04-03T03:52:11.723Z,3.17
2023-04-03T03:54:39.380Z,3.43
2023-04-03T03:57:06.923Z,2.50
2023-04-03T03:59:34.901Z,2.80
2023-04-03T04:02:02.163Z,3.97
2023-04-03T04:04:29.109Z,2.90
2023-04-03T04:06:56.212Z,3.47
2023-04-03T04:09:23.208Z,5.00
2023-04-03T04:11:50.228Z,3.00
2023-04-03T04:14:17.206Z,3.87
2023-04-03T04:16:46.575Z,3.70
2023-04-03T04:19:15.039Z,4.50
2023-04-03T04:21:42.537Z,4.63
2023-04-03T04:24:10.196Z,3.20
2023-04-03T04:26:37.078Z,3.83
2023-04-03T04:29:04.018Z,3.50
2023-04-03T04:31:31.122Z,5.23
2023-04-03T04:33:58.138Z,4.27
2023-04-03T04:36:25.086Z,4.10
2023-04-03T04:38:54.057Z,3.80
2023-04-03T04:41:23.346Z,4.47
2023-04-03T04:43:51.149Z,5.07
2023-04-03T04:46:18.775Z,7.83
2023-04-03T04:48:46.280Z,5.30
2023-04-03T04:51:13.180Z,4.67
2023-04-03T04:53:40.194Z,3.80
2023-04-03T04:56:07.738Z,5.10
2023-04-03T04:58:34.667Z,5.23
2023-04-03T05:01:07.606Z,4.37
2023-04-03T05:03:35.411Z,3.77
2023-04-03T05:06:02.489Z,4.80
2023-04-03T05:08:29.456Z,3.73
2023-04-03T05:10:56.561Z,4.07
2023-04-03T05:13:23.596Z,5.77
2023-04-03T05:15:50.765Z,5.50
2023-04-03T05:18:17.721Z,6.33
2023-04-03T05:20:45.984Z,5.07
2023-04-03T05:23:12.951Z,6.63
2023-04-03T05:25:40.126Z,4.37
2023-04-03T05:28:07.948Z,4.37
2023-04-03T05:30:35.000Z,4.70
2023-04-03T05:33:02.149Z,6.87
2023-04-03T05:35:29.085Z,5.87
2023-04-03T05:37:56.373Z,5.87
2023-04-03T05:40:23.732Z,7.30
2023-04-03T05:42:50.690Z,4.80
2023-04-03T05:45:17.906Z,6.63
2023-04-03T05:47:44.850Z,6.30
2023-04-03T05:50:11.936Z,7.53
2023-04-03T05:52:41.439Z,6.93
2023-04-03T05:55:08.787Z,4.60
2023-04-03T05:57:35.792Z,6.93
2023-04-03T06:00:07.308Z,6.47
2023-04-03T06:02:34.293Z,5.23
2023-04-03T06:05:01.705Z,8.63
2023-04-03T06:07:29.573Z,7.47
2023-04-03T06:09:58.081Z,6.57
2023-04-03T06:12:25.270Z,5.17
2023-04-03T06:14:52.325Z,6.73
2023-04-03T06:17:19.615Z,5.33
2023-04-03T06:19:47.057Z,5.70
2023-04-03T06:22:15.361Z,8.83
2023-04-03T06:24:42.720Z,6.77
2023-04-03T06:27:11.914Z,6.53
2023-04-03T06:29:38.808Z,6.40
2023-04-03T06:32:05.903Z,7.70
2023-04-03T06:34:33.221Z,5.33
2023-04-03T06:37:00.294Z,7.77
2023-04-03T06:39:27.224Z,6.50
2023-04-03T06:41:54.140Z,5.00
2023-04-03T06:44:21.117Z,5.23
2023-04-03T06:46:48.099Z,10.20
2023-04-03T06:49:16.052Z,7.07
2023-04-03T06:51:42.985Z,5.33
2023-04-03T06:54:09.888Z,6.70
2023-04-03T06:56:36.929Z,5.77
2023-04-03T06:59:05.057Z,5.27
2023-04-03T07:01:32.532Z,5.60
2023-04-03T07:03:59.574Z,5.87
2023-04-03T07:06:28.222Z,7.27
2023-04-03T07:08:56.013Z,6.00
2023-04-03T07:11:23.500Z,5.13
2023-04-03T07:13:51.158Z,7.53
2023-04-03T07:16:18.301Z,7.63
2023-04-03T07:18:45.985Z,6.90
2023-04-03T07:21:13.020Z,6.27
2023-04-03T07:23:40.503Z,6.00
2023-04-03T07:26:08.976Z,6.63
2023-04-03T07:28:36.151Z,5.83
2023-04-03T07:31:09.827Z,5.87
2023-04-03T07:33:38.542Z,4.77
2023-04-03T07:36:08.025Z,6.23
2023-04-03T07:38:36.531Z,5.50
2023-04-03T07:41:04.692Z,5.73
2023-04-03T07:43:31.643Z,8.90
2023-04-03T07:45:58.628Z,4.90
2023-04-03T07:48:27.638Z,3.50
2023-04-03T07:50:54.609Z,7.90
2023-04-03T07:53:21.779Z,6.03
2023-04-03T07:55:50.218Z,4.43
2023-04-03T07:58:19.033Z,5.17
2023-04-03T08:00:46.684Z,6.40
2023-04-03T08:03:14.617Z,5.40
2023-04-03T08:05:43.418Z,4.30
2023-04-03T08:08:12.860Z,3.73
2023-04-03T08:10:39.984Z,5.07
2023-04-03T08:13:07.375Z,3.90
2023-04-03T08:15:34.468Z,8.30
2023-04-03T08:18:01.970Z,6.30
2023-04-03T08:20:29.603Z,6.90
2023-04-03T08:22:57.547Z,7.97
2023-04-03T08:25:24.702Z,6.13
2023-04-03T08:27:51.725Z,5.30
2023-04-03T08:30:18.684Z,5.80
2023-04-03T08:32:46.028Z,8.13
2023-04-03T08:35:13.224Z,6.00
2023-04-03T08:37:40.929Z,5.33
2023-04-03T08:40:13.972Z,5.53
2023-04-03T08:43:07.253Z,6.23
2023-04-03T08:45:49.616Z,4.33
2023-04-03T08:48:29.226Z,7.70
2023-04-03T08:51:03.158Z,5.53
2023-04-03T08:53:34.871Z,5.47
2023-04-03T08:56:13.932Z,3.63
2023-04-03T08:58:56.465Z,4.00
2023-04-03T09:01:26.167Z,4.47
2023-04-03T09:03:53.283Z,6.37
2023-04-03T09:06:34.011Z,4.40
2023-04-03T09:09:09.849Z,4.17
2023-04-03T09:11:48.819Z,3.87
2023-04-03T09:14:27.624Z,5.93
2023-04-03T09:17:04.727Z,4.77
2023-04-03T09:19:43.204Z,3.70
2023-04-03T09:22:17.667Z,4.70
2023-04-03T09:24:53.474Z,5.70
2023-04-03T09:27:20.905Z,3.80
2023-04-03T09:29:47.921Z,3.70
2023-04-03T09:32:28.449Z,5.40
2023-04-03T09:35:09.642Z,5.33
2023-04-03T09:37:48.066Z,6.17
2023-04-03T09:40:39.490Z,5.20
2023-04-03T09:43:21.781Z,6.17
2023-04-03T09:45:49.954Z,6.27
2023-04-03T09:48:20.260Z,3.60
2023-04-03T09:50:59.571Z,6.67
2023-04-03T09:53:30.681Z,5.73
2023-04-03T09:55:58.506Z,5.27
2023-04-03T09:58:50.818Z,5.03
2023-04-03T10:01:33.581Z,5.37
2023-04-03T10:04:20.850Z,7.03
2023-04-03T10:06:56.028Z,5.67
2023-04-03T10:09:31.549Z,5.33
2023-04-03T10:12:08.015Z,2.73
2023-04-03T10:14:59.533Z,4.03
2023-04-03T10:17:35.826Z,5.30
2023-04-03T10:20:17.916Z,11.20
2023-04-03T10:22:49.174Z,9.80
2023-04-03T10:25:22.031Z,9.77
2023-04-03T10:28:02.071Z,12.63
2023-04-03T10:30:32.632Z,8.40
2023-04-03T10:33:15.242Z,11.17
2023-04-03T10:35:50.148Z,10.70
2023-04-03T10:38:17.025Z,6.17
2023-04-03T10:41:17.611Z,7.07
2023-04-03T10:44:12.981Z,10.53
2023-04-03T10:46:47.713Z,12.63
2023-04-03T10:49:56.987Z,7.43
2023-04-03T10:52:32.788Z,10.30
2023-04-03T10:55:17.604Z,9.83
2023-04-03T10:57:45.573Z,8.20
2023-04-03T11:00:23.764Z,9.70
2023-04-03T11:02:53.809Z,11.33
2023-04-03T11:05:45.842Z,6.70
2023-04-03T11:08:29.936Z,7.63
2023-04-03T11:11:01.569Z,9.90
2023-04-03T11:13:56.065Z,9.07
2023-04-03T11:16:28.366Z,3.90
2023-04-03T11:18:58.440Z,6.40
2023-04-03T11:21:30.710Z,9.53
2023-04-03T11:23:59.844Z,9.13
2023-04-03T11:26:33.814Z,4.93
2023-04-03T11:29:06.363Z,5.57
2023-04-03T11:31:33.594Z,6.50
2023-04-03T11:34:18.631Z,8.00
2023-04-03T11:36:56.392Z,4.93
2023-04-03T11:39:33.143Z,8.60
2023-04-03T11:42:26.598Z,4.00
2023-04-03T11:45:18.402Z,6.37
2023-04-03T11:47:52.318Z,3.47
2023-04-03T11:50:38.046Z,5.60
2023-04-03T11:53:08.314Z,7.87
2023-04-03T11:55:35.686Z,4.00
2023-04-03T11:58:02.901Z,2.13
2023-04-03T12:00:56.188Z,3.90
2023-04-03T12:03:27.553Z,6.37
2023-04-03T12:06:37.608Z,2.90
2023-04-03T12:09:46.223Z,5.17
2023-04-03T12:12:41.506Z,2.43
2023-04-03T12:15:25.354Z,1.90
2023-04-03T12:17:53.087Z,5.73
2023-04-03T12:20:57.793Z,1.93
2023-04-03T12:23:29.864Z,4.03
2023-04-03T12:26:30.090Z,4.60
2023-04-03T12:29:00.194Z,4.00
2023-04-03T12:31:41.378Z,10.53
2023-04-03T12:34:11.545Z,7.10
2023-04-03T12:36:58.514Z,6.43
2023-04-03T12:39:38.914Z,9.10
2023-04-03T12:42:25.311Z,12.93
2023-04-03T12:45:11.762Z,7.67
2023-04-03T12:47:39.275Z,3.83
2023-04-03T12:50:18.657Z,8.63
2023-04-03T12:53:00.444Z,8.73
2023-04-03T12:55:28.915Z,3.83
2023-04-03T12:57:55.903Z,5.27
2023-04-03T13:00:36.706Z,1.83
2023-04-03T13:03:06.176Z,2.20
2023-04-03T13:05:36.733Z,1.97
2023-04-03T13:08:13.764Z,2.17
2023-04-03T13:11:03.571Z,2.53
2023-04-03T13:13:30.934Z,1.97
2023-04-03T13:15:58.771Z,7.00
2023-04-03T13:18:43.802Z,6.63
2023-04-03T13:21:20.593Z,10.50
2023-04-03T13:23:55.332Z,5.17
2023-04-03T13:26:31.232Z,6.80
2023-04-03T13:29:06.316Z,9.17
2023-04-03T13:31:37.001Z,10.90
2023-04-03T13:34:14.863Z,15.27
2023-04-03T13:36:46.149Z,7.43
2023-04-03T13:39:16.529Z,11.27
2023-04-03T13:41:52.534Z,6.37
2023-04-03T13:44:22.497Z,9.97
2023-04-03T13:47:22.498Z,13.00
2023-04-03T13:50:01.848Z,6.23
2023-04-03T13:52:33.607Z,4.77
2023-04-03T13:55:48.361Z,9.07
2023-04-03T13:58:25.338Z,8.20
2023-04-03T14:01:09.633Z,6.33
2023-04-03T14:03:44.655Z,4.30
2023-04-03T14:06:14.917Z,7.33
2023-04-03T14:08:43.716Z,7.13
2023-04-03T14:11:23.510Z,5.07
2023-04-03T14:13:51.434Z,4.53
2023-04-03T14:16:28.543Z,13.33
2023-04-03T14:18:55.457Z,4.27
2023-04-03T14:21:23.018Z,9.20
2023-04-03T14:23:50.417Z,10.53
2023-04-03T14:26:21.479Z,6.70
2023-04-03T14:28:50.866Z,7.90
2023-04-03T14:31:18.801Z,17.77
2023-04-03T14:33:47.528Z,7.23
2023-04-03T14:36:34.155Z,6.40
2023-04-03T14:39:01.872Z,12.97
2023-04-03T14:41:29.617Z,7.87
2023-04-03T14:43:57.991Z,4.10
2023-04-03T14:46:48.304Z,2.07
2023-04-03T14:49:25.069Z,6.17
2023-04-03T14:51:51.963Z,5.47
2023-04-03T14:54:26.505Z,4.43
2023-04-03T14:56:54.332Z,10.27
2023-04-03T14:59:22.568Z,9.87
2023-04-03T15:01:50.182Z,7.97
2023-04-03T15:04:19.763Z,3.23
2023-04-03T15:06:48.307Z,2.20
2023-04-03T15:09:26.997Z,3.47
2023-04-03T15:11:56.029Z,5.20
2023-04-03T15:14:35.938Z,10.13
2023-04-03T15:17:12.064Z,7.17
2023-04-03T15:19:40.198Z,6.27
2023-04-03T15:22:07.971Z,4.27
2023-04-03T15:24:35.016Z,4.93
2023-04-03T15:27:02.590Z,8.93
2023-04-03T15:29:29.591Z,4.03
2023-04-03T15:31:56.826Z,4.40
2023-04-03T15:34:23.848Z,3.77
2023-04-03T15:36:53.776Z,12.97
2023-04-03T15:39:21.788Z,6.53
2023-04-03T15:41:48.999Z,2.53
2023-04-03T15:44:18.670Z,2.63
2023-04-03T15:46:47.286Z,1.67
2023-04-03T15:49:14.436Z,1.33
2023-04-03T15:51:41.537Z,5.07
2023-04-03T15:54:08.560Z,3.63
2023-04-03T15:56:35.464Z,3.93
2023-04-03T15:59:03.419Z,4.67
2023-04-03T16:01:30.667Z,10.10
2023-04-03T16:03:57.740Z,6.33
2023-04-03T16:06:26.233Z,12.47
2023-04-03T16:08:58.071Z,5.60
2023-04-03T16:11:28.363Z,5.63
2023-04-03T16:13:56.267Z,8.30
2023-04-03T16:16:24.527Z,4.37
2023-04-03T16:18:51.822Z,3.63
2023-04-03T16:21:18.908Z,5.40
2023-04-03T16:23:45.959Z,2.07
2023-04-03T16:26:13.104Z,1.53
2023-04-03T16:28:40.070Z,1.13
2023-04-03T16:31:08.466Z,1.77
2023-04-03T16:33:36.103Z,1.00
2023-04-03T16:36:04.265Z,2.20
2023-04-03T16:38:32.280Z,1.43
2023-04-03T16:41:00.547Z,1.90
2023-04-03T16:43:28.065Z,3.80
2023-04-03T16:45:55.035Z,1.53
2023-04-03T16:48:22.126Z,4.53
2023-04-03T16:50:50.132Z,3.00
2023-04-03T16:53:17.244Z,1.30
2023-04-03T16:55:44.168Z,2.93
2023-04-03T16:58:11.264Z,2.60
2023-04-03T17:00:38.437Z,1.80
2023-04-03T17:03:05.503Z,3.37
2023-04-03T17:05:32.448Z,6.47
2023-04-03T17:08:00.102Z,6.83
2023-04-03T17:10:27.561Z,5.67
2023-04-03T17:12:54.497Z,2.17
2023-04-03T17:15:22.011Z,6.00
2023-04-03T17:17:50.542Z,13.67
2023-04-03T17:20:17.597Z,7.83
2023-04-03T17:22:45.554Z,6.90
2023-04-03T17:25:12.607Z,13.03
2023-04-03T17:27:39.781Z,5.07
2023-04-03T17:30:09.143Z,3.17
2023-04-03T17:32:36.126Z,1.97
2023-04-03T17:35:03.105Z,2.03
2023-04-03T17:37:30.038Z,4.83
2023-04-03T17:39:56.922Z,15.33
2023-04-03T17:42:23.843Z,23.13
2023-04-03T17:44:50.907Z,15.43
2023-04-03T17:47:17.789Z,10.83
2023-04-03T17:49:44.731Z,16.67
2023-04-03T17:52:11.670Z,18.47
2023-04-03T17:54:38.607Z,28.20
2023-04-03T17:57:05.774Z,25.13
2023-04-03T17:59:33.077Z,32.07
2023-04-03T18:02:00.081Z,25.33
2023-04-03T18:04:29.062Z,27.77
2023-04-03T18:06:56.224Z,15.90
2023-04-03T18:09:32.133Z,12.43
2023-04-03T18:12:02.545Z,8.60
2023-04-03T18:14:29.657Z,9.00
2023-04-03T18:16:58.943Z,14.40
2023-04-03T18:19:29.099Z,14.40
2023-04-03T18:21:59.618Z,8.13
2023-04-03T18:24:27.570Z,7.17
2023-04-03T18:27:02.123Z,3.23
2023-04-03T18:29:31.708Z,3.73
2023-04-03T18:31:59.090Z,1.60
2023-04-03T18:34:26.048Z,3.17
2023-04-03T18:36:53.571Z,5.43
2023-04-03T18:39:21.085Z,1.90
2023-04-03T18:41:49.600Z,2.77
2023-04-03T18:44:21.157Z,3.90
2023-04-03T18:46:48.164Z,2.83
2023-04-03T18:49:15.773Z,3.20
2023-04-03T18:51:42.797Z,2.67
2023-04-03T18:54:10.192Z,3.23
2023-04-03T18:56:38.261Z,4.10
2023-04-03T18:59:05.720Z,5.00
2023-04-03T19:01:34.312Z,3.87
2023-04-03T19:04:01.528Z,2.73
2023-04-03T19:06:28.769Z,4.73
2023-04-03T19:08:56.753Z,5.23
2023-04-03T19:11:23.658Z,5.17
2023-04-03T19:14:10.457Z,2.13
2023-04-03T19:16:37.998Z,2.73
2023-04-03T19:19:04.967Z,2.40
2023-04-03T19:21:31.922Z,2.37
2023-04-03T19:23:59.390Z,2.10
2023-04-03T19:26:27.632Z,3.27
2023-04-03T19:28:54.631Z,4.47
2023-04-03T19:31:23.292Z,3.80
2023-04-03T19:33:50.820Z,1.87
2023-04-03T19:36:18.377Z,2.40
2023-04-03T19:38:45.352Z,1.47
2023-04-03T19:41:19.602Z,2.27
2023-04-03T19:43:46.800Z,2.97
2023-04-03T19:46:13.782Z,2.83
2023-04-03T19:48:40.832Z,2.27
2023-04-03T19:51:08.907Z,2.50
2023-04-03T19:53:36.046Z,3.77
2023-04-03T19:56:03.090Z,3.67
2023-04-03T19:58:30.217Z,2.77
2023-04-03T20:00:58.391Z,3.20
2023-04-03T20:03:26.238Z,2.80
2023-04-03T20:05:54.775Z,3.37
2023-04-03T20:08:21.818Z,3.23
2023-04-03T20:10:49.171Z,2.50
2023-04-03T20:13:16.206Z,1.57
2023-04-03T20:15:44.982Z,3.60
2023-04-03T20:18:19.162Z,2.23
2023-04-03T20:20:54.003Z,2.67
2023-04-03T20:23:21.936Z,2.17
2023-04-03T20:25:58.005Z,3.33
2023-04-03T20:28:34.135Z,2.43
2023-04-03T20:31:02.502Z,2.23
2023-04-03T20:33:30.145Z,4.67
2023-04-03T20:35:58.508Z,3.60
2023-04-03T20:38:25.872Z,3.73
2023-04-03T20:40:53.046Z,4.97
2023-04-03T20:43:21.896Z,2.87
2023-04-03T20:45:49.347Z,2.10
2023-04-03T20:48:16.724Z,1.97
2023-04-03T20:50:45.961Z,3.10
2023-04-03T20:53:13.826Z,3.23
2023-04-03T20:55:42.715Z,3.10
2023-04-03T20:58:09.724Z,2.73
2023-04-03T21:00:38.189Z,2.37
2023-04-03T21:03:06.217Z,1.90
2023-04-03T21:05:37.571Z,3.40
2023-04-03T21:08:42.471Z,1.97
2023-04-03T21:11:47.452Z,3.23
2023-04-03T21:14:52.168Z,2.57
2023-04-03T21:17:19.194Z,4.00
2023-04-03T21:19:47.710Z,3.57
2023-04-03T21:22:16.396Z,3.63
2023-04-03T21:24:44.487Z,3.40
2023-04-03T21:27:11.663Z,5.40
2023-04-03T21:29:38.987Z,2.90
2023-04-03T21:32:06.378Z,4.07
2023-04-03T21:34:33.545Z,3.97
2023-04-03T21:37:04.903Z,3.73
2023-04-03T21:39:32.318Z,3.90
2023-04-03T21:41:59.336Z,2.23
2023-04-03T21:44:28.568Z,3.97
2023-04-03T21:46:56.068Z,5.93
2023-04-03T21:49:24.223Z,4.07
2023-04-03T21:51:52.540Z,4.23
2023-04-03T21:54:20.667Z,4.03
2023-04-03T21:56:52.488Z,4.77
2023-04-03T21:59:19.609Z,3.67
2023-04-03T22:01:46.714Z,3.53
2023-04-03T22:04:13.647Z,2.07
2023-04-03T22:06:40.974Z,3.70
2023-04-03T22:09:08.269Z,3.63
2023-04-03T22:11:35.147Z,4.23
2023-04-03T22:14:02.084Z,2.70
2023-04-03T22:16:30.138Z,2.83
2023-04-03T22:18:59.364Z,4.97
2023-04-03T22:21:26.773Z,3.47
2023-04-03T22:23:54.746Z,3.70
2023-04-03T22:26:21.902Z,2.77
2023-04-03T22:28:48.861Z,3.00
2023-04-03T22:31:16.675Z,4.70
2023-04-03T22:33:45.611Z,3.00
2023-04-03T22:36:13.778Z,2.77
2023-04-03T22:38:44.976Z,5.53
2023-04-03T22:41:11.977Z,3.50
2023-04-03T22:43:39.743Z,2.73
2023-04-03T22:46:08.981Z,4.70
2023-04-03T22:48:42.420Z,4.20
2023-04-03T22:51:09.742Z,2.50
2023-04-03T22:53:37.692Z,3.83
2023-04-03T22:56:10.987Z,2.40
2023-04-03T22:58:39.188Z,3.53
2023-04-03T23:01:08.544Z,3.03
2023-04-03T23:03:36.456Z,2.53
2023-04-03T23:06:08.017Z,4.30
2023-04-03T23:08:38.089Z,4.93
2023-04-03T23:11:07.257Z,2.60
2023-04-03T23:13:34.656Z,3.60
2023-04-03T23:16:02.931Z,2.37
2023-04-03T23:18:31.977Z,2.40
2023-04-03T23:20:59.906Z,2.57
2023-04-03T23:23:27.270Z,2.30
2023-04-03T23:25:59.794Z,2.77
2023-04-03T23:28:27.840Z,3.27
2023-04-03T23:31:01.994Z,3.03
2023-04-03T23:33:30.819Z,2.00
2023-04-03T23:35:58.793Z,3.53
2023-04-03T23:38:26.180Z,2.33
2023-04-03T23:40:53.302Z,2.10
2023-04-03T23:43:20.182Z,4.73
2023-04-03T23:45:47.315Z,3.20
2023-04-03T23:48:14.281Z,5.20
2023-04-03T23:50:42.239Z,3.77
2023-04-03T23:53:09.506Z,3.83
2023-04-03T23:55:36.858Z,3.57
2023-04-03T23:58:03.851Z,2.37
